createdAt,value
2018-05-13T00:00:05.775Z,17.4
2018-05-13T00:05:02.598Z,17.3
2018-05-13T00:10:03.351Z,17.3
2018-05-13T00:15:10.219Z,17.1
2018-05-13T00:20:02.605Z,17.1
2018-05-13T00:25:15.737Z,16.9
2018-05-13T00:30:08.049Z,16.9
2018-05-13T00:35:09.988Z,16.9
2018-05-13T00:40:07.773Z,16.9
2018-05-13T00:45:15.753Z,16.8
2018-05-13T00:50:03.222Z,16.8
2018-05-13T00:55:02.495Z,16.8
2018-05-13T01:00:05.356Z,16.7
2018-05-13T01:05:05.657Z,16.6
2018-05-13T01:10:07.681Z,16.6
2018-05-13T01:15:10.304Z,16.6
2018-05-13T01:20:02.676Z,16.5
2018-05-13T01:25:13.211Z,16.4
2018-05-13T01:30:02.466Z,16.4
2018-05-13T01:35:07.934Z,16.3
2018-05-13T01:40:15.322Z,16.3
2018-05-13T01:45:03.049Z,16.2
2018-05-13T01:50:04.866Z,16.2
2018-05-13T01:55:05.195Z,16.2
2018-05-13T02:00:05.015Z,16.2
2018-05-13T02:05:07.901Z,16.1
2018-05-13T02:10:02.625Z,16.1
2018-05-13T02:15:03.047Z,16.1
2018-05-13T02:20:02.438Z,16.1
2018-05-13T02:25:02.720Z,16
2018-05-13T02:30:13.229Z,15.9
2018-05-13T02:35:17.635Z,15.9
2018-05-13T02:40:02.441Z,15.9
2018-05-13T02:45:15.411Z,15.8
2018-05-13T02:50:02.704Z,15.8
2018-05-13T02:55:05.595Z,15.7
2018-05-13T03:00:23.138Z,15.7
2018-05-13T03:05:13.389Z,15.7
2018-05-13T03:10:05.675Z,15.7
2018-05-13T03:15:02.539Z,15.7
2018-05-13T03:20:08.035Z,15.5
2018-05-13T03:25:08.343Z,15.5
2018-05-13T03:30:05.234Z,15.6
2018-05-13T03:35:02.998Z,15.5
2018-05-13T03:40:07.819Z,15.6
2018-05-13T03:45:03.088Z,15.5
2018-05-13T03:50:04.889Z,15.6
2018-05-13T03:55:10.366Z,15.6
2018-05-13T04:00:27.965Z,15.6
2018-05-13T04:05:03.213Z,15.6
2018-05-13T04:10:02.947Z,15.7
2018-05-13T04:15:05.836Z,15.7
2018-05-13T04:20:05.902Z,15.7
2018-05-13T04:25:05.209Z,15.8
2018-05-13T04:30:17.688Z,15.9
2018-05-13T04:35:17.997Z,15.9
2018-05-13T04:40:07.803Z,16
2018-05-13T04:45:03.039Z,16
2018-05-13T04:50:02.368Z,16.1
2018-05-13T04:55:12.824Z,16.3
2018-05-13T05:00:03.135Z,16.3
2018-05-13T05:05:07.535Z,16.4
2018-05-13T05:10:05.948Z,16.5
2018-05-13T05:15:02.695Z,16.6
2018-05-13T05:20:03.069Z,16.7
2018-05-13T05:25:17.672Z,16.8
2018-05-13T05:30:02.948Z,16.9
2018-05-13T05:35:02.343Z,16.9
2018-05-13T05:40:08.192Z,17.1
2018-05-13T05:45:05.008Z,17.2
2018-05-13T05:50:02.466Z,17.2
2018-05-13T05:55:15.584Z,17.3
2018-05-13T06:00:02.919Z,17.3
2018-05-13T06:05:03.256Z,17.4
2018-05-13T06:10:05.525Z,17.6
2018-05-13T06:15:02.768Z,17.6
2018-05-13T06:20:03.229Z,17.7
2018-05-13T06:25:02.582Z,17.8
2018-05-13T06:30:07.555Z,18
2018-05-13T06:35:02.845Z,18
2018-05-13T06:40:12.847Z,18.2
2018-05-13T06:45:08.145Z,18.2
2018-05-13T06:50:02.934Z,18.2
2018-05-13T06:55:03.318Z,18.4
2018-05-13T07:00:02.666Z,18.5
2018-05-13T07:05:10.599Z,18.7
2018-05-13T07:10:05.858Z,18.9
2018-05-13T07:15:08.047Z,19
2018-05-13T07:20:04.977Z,19.3
2018-05-13T07:25:02.834Z,19.2
2018-05-13T07:30:03.181Z,19.4
2018-05-13T07:35:10.132Z,19.6
2018-05-13T07:40:02.931Z,19.6
2018-05-13T07:45:03.300Z,19.8
2018-05-13T07:50:12.798Z,20.1
2018-05-13T07:55:20.761Z,20.3
2018-05-13T08:00:03.096Z,20.3
2018-05-13T08:05:02.389Z,20.4
2018-05-13T08:10:02.470Z,20.6
2018-05-13T08:15:05.428Z,20.9
2018-05-13T08:20:10.539Z,21
2018-05-13T08:25:07.574Z,21.2
2018-05-13T08:30:02.908Z,21.2
2018-05-13T08:35:08.295Z,21.5
2018-05-13T08:40:05.758Z,21.7
2018-05-13T08:45:04.986Z,21.8
2018-05-13T08:50:10.841Z,21.9
2018-05-13T08:55:02.767Z,21.9
2018-05-13T09:00:05.737Z,22.2
2018-05-13T09:05:07.799Z,22.4
2018-05-13T09:10:05.166Z,22.6
2018-05-13T09:15:03.180Z,22.6
2018-05-13T09:20:05.311Z,22.8
2018-05-13T09:25:18.325Z,23
2018-05-13T09:30:02.705Z,23
2018-05-13T09:35:05.558Z,23.5
2018-05-13T09:40:21.052Z,23.7
2018-05-13T09:45:02.801Z,23.7
2018-05-13T09:50:03.126Z,23.9
2018-05-13T09:55:02.498Z,23.9
2018-05-13T10:00:10.464Z,24.1
2018-05-13T10:05:03.266Z,24.1
2018-05-13T10:10:05.537Z,24.2
2018-05-13T10:15:02.426Z,24.2
2018-05-13T10:20:12.982Z,24.3
2018-05-13T10:25:03.277Z,24.3
2018-05-13T10:30:02.617Z,24.5
2018-05-13T10:35:03.039Z,24.6
2018-05-13T10:40:05.375Z,24.7
2018-05-13T10:45:08.312Z,24.8
2018-05-13T10:50:12.797Z,24.8
2018-05-13T10:55:05.525Z,24.9
2018-05-13T11:00:02.909Z,24.8
2018-05-13T11:05:02.412Z,25
2018-05-13T11:10:05.784Z,25.1
2018-05-13T11:15:05.279Z,25.2
2018-05-13T11:20:05.238Z,25.3
2018-05-13T11:25:08.222Z,25.5
2018-05-13T11:30:07.925Z,25.7
2018-05-13T11:35:02.337Z,25.7
2018-05-13T11:40:05.677Z,25.8
2018-05-13T11:45:05.124Z,26
2018-05-13T11:50:02.494Z,25.9
2018-05-13T11:55:05.497Z,26.2
2018-05-13T12:00:02.820Z,26.2
2018-05-13T12:05:02.444Z,26.3
2018-05-13T12:10:03.329Z,26.5
2018-05-13T12:15:02.978Z,26.7
2018-05-13T12:20:02.520Z,26.7
2018-05-13T12:25:05.528Z,27
2018-05-13T12:30:02.888Z,27
2018-05-13T12:35:10.913Z,27.3
2018-05-13T12:40:02.734Z,27.3
2018-05-13T12:45:05.674Z,27.6
2018-05-13T12:50:08.168Z,27.6
2018-05-13T12:55:07.566Z,27.9
2018-05-13T13:00:08.362Z,28
2018-05-13T13:05:02.797Z,28
2018-05-13T13:10:02.839Z,28.2
2018-05-13T13:15:16.028Z,28.4
2018-05-13T13:20:02.811Z,28.4
2018-05-13T13:25:03.220Z,28.4
2018-05-13T13:30:07.640Z,28.7
2018-05-13T13:35:03.119Z,28.7
2018-05-13T13:40:02.988Z,29
2018-05-13T13:45:04.981Z,29.9
2018-05-13T13:50:02.377Z,29.8
2018-05-13T13:55:05.358Z,29.7
2018-05-13T14:00:05.321Z,29.7
2018-05-13T14:05:10.725Z,29.9
2018-05-13T14:10:12.730Z,30.2
2018-05-13T14:15:03.047Z,30.2
2018-05-13T14:20:05.196Z,30.3
2018-05-13T14:25:03.215Z,30.3
2018-05-13T14:30:05.161Z,30.1
2018-05-13T14:35:02.954Z,30
2018-05-13T14:40:07.895Z,30.2
2018-05-13T14:45:05.852Z,30.3
2018-05-13T14:50:03.286Z,30.2
2018-05-13T14:55:10.341Z,31.8
2018-05-13T15:00:10.446Z,32.7
2018-05-13T15:05:03.263Z,32.7
2018-05-13T15:10:12.626Z,33
2018-05-13T15:15:02.961Z,33
2018-05-13T15:20:02.417Z,32.8
2018-05-13T15:25:03.019Z,31.9
2018-05-13T15:30:07.583Z,31.1
2018-05-13T15:35:05.533Z,30.6
2018-05-13T15:40:09.969Z,30.6
2018-05-13T15:45:05.450Z,30.6
2018-05-13T15:50:10.496Z,31.1
2018-05-13T15:55:03.308Z,31.1
2018-05-13T16:00:02.994Z,31.5
2018-05-13T16:05:02.547Z,32.3
2018-05-13T16:10:02.388Z,32.7
2018-05-13T16:15:08.114Z,32.4
2018-05-13T16:20:05.181Z,31.6
2018-05-13T16:25:10.796Z,28.8
2018-05-13T16:30:03.415Z,31.2
2018-05-13T16:35:05.461Z,30.4
2018-05-13T16:40:03.313Z,30.4
2018-05-13T16:45:10.596Z,26.3
2018-05-13T16:50:08.204Z,29.2
2018-05-13T16:55:02.657Z,29.2
2018-05-13T17:00:15.728Z,28.6
2018-05-13T17:05:10.148Z,28.3
2018-05-13T17:10:08.012Z,28
2018-05-13T17:15:02.477Z,28
2018-05-13T17:20:05.904Z,27.3
2018-05-13T17:25:02.697Z,27.3
2018-05-13T17:30:02.375Z,27
2018-05-13T17:35:10.669Z,26.3
2018-05-13T17:40:07.910Z,26
2018-05-13T17:45:09.943Z,25.8
2018-05-13T17:50:05.146Z,25.6
2018-05-13T17:55:03.120Z,25.6
2018-05-13T18:00:10.433Z,25.3
2018-05-13T18:05:07.385Z,25.1
2018-05-13T18:10:02.530Z,25.1
2018-05-13T18:15:08.044Z,24.8
2018-05-13T18:20:02.840Z,24.8
2018-05-13T18:25:09.976Z,24.5
2018-05-13T18:30:15.641Z,24.3
2018-05-13T18:35:12.487Z,24.2
2018-05-13T18:40:05.864Z,24
2018-05-13T18:45:02.659Z,24
2018-05-13T18:50:05.534Z,23.7
2018-05-13T18:55:05.135Z,23.5
2018-05-13T19:00:02.548Z,23.5
2018-05-13T19:05:05.485Z,23.3
2018-05-13T19:10:03.250Z,23.2
2018-05-13T19:15:03.118Z,23.1
2018-05-13T19:20:02.490Z,23
2018-05-13T19:25:05.542Z,22.8
2018-05-13T19:30:10.475Z,22.7
2018-05-13T19:35:02.351Z,22.7
2018-05-13T19:40:03.158Z,22.6
2018-05-13T19:45:07.636Z,22.4
2018-05-13T19:50:03.023Z,22.4
2018-05-13T19:55:02.458Z,22.4
2018-05-13T20:00:02.809Z,22.2
2018-05-13T20:05:03.269Z,22.2
2018-05-13T20:10:08.186Z,22.1
2018-05-13T20:15:07.592Z,22
2018-05-13T20:20:03.012Z,22
2018-05-13T20:25:07.496Z,21.8
2018-05-13T20:30:12.976Z,21.7
2018-05-13T20:35:09.943Z,21.7
2018-05-13T20:40:10.474Z,21.6
2018-05-13T20:45:03.207Z,21.6
2018-05-13T20:50:05.082Z,21.5
2018-05-13T20:55:08.004Z,21.4
2018-05-13T21:00:07.501Z,21.3
2018-05-13T21:05:10.443Z,21.1
2018-05-13T21:10:03.309Z,21.1
2018-05-13T21:15:05.288Z,21
2018-05-13T21:20:12.832Z,20.9
2018-05-13T21:25:03.069Z,20.9
2018-05-13T21:30:04.983Z,20.8
2018-05-13T21:35:13.234Z,20.7
2018-05-13T21:40:03.018Z,20.7
2018-05-13T21:45:07.495Z,20.6
2018-05-13T21:50:05.370Z,20.6
2018-05-13T21:55:03.236Z,20.5
2018-05-13T22:00:05.188Z,20.3
2018-05-13T22:05:05.507Z,20.3
2018-05-13T22:10:05.882Z,20.3
2018-05-13T22:15:05.186Z,20.2
2018-05-13T22:20:02.639Z,20.2
2018-05-13T22:25:02.947Z,20.1
2018-05-13T22:30:10.886Z,20
2018-05-13T22:35:02.657Z,20
2018-05-13T22:40:02.410Z,20
2018-05-13T22:45:17.943Z,19.8
2018-05-13T22:50:10.882Z,19.7
2018-05-13T22:55:02.745Z,19.7
2018-05-13T23:00:03.249Z,19.7
2018-05-13T23:05:07.571Z,19.6
2018-05-13T23:10:03.308Z,19.6
2018-05-13T23:15:10.239Z,19.4
2018-05-13T23:20:02.729Z,19.4
2018-05-13T23:25:05.595Z,19.2
2018-05-13T23:30:05.521Z,19.2
2018-05-13T23:35:05.814Z,19.1
2018-05-13T23:40:05.122Z,19.1
2018-05-13T23:45:05.497Z,18.9
2018-05-13T23:50:10.451Z,18.8
2018-05-13T23:55:10.752Z,18.8
